KEYW/EYW METAR and TAF weather

Enter ICAO airport designator
Station Type Date Time Source
KEYW METAR 2021/02/24 23:53 UTC NOAA

KEYW 242353Z 36005KT 10SM SKC 24/21 A3011 RMK A02 SLP192 T02610211


Station Type Date Time Source
KEYW Decoded METAR 2021/02/24 23:53 UTC NOAA

KEY WEST INTERNATIONAL AIRPORT , FL, United States (KEYW) 24-33N 81-46W 5M
Feb 24, 2021 - 06:53 PM EST / 2021.02.24 2353 UTC
Wind: from the N (360 degrees) at 6 MPH (5 KT):0
Visibility: 10 mile(s):0
Sky conditions: clear
Temperature: 79.0 F (26.1 C)
Dew Point: 70.0 F (21.1 C)
Relative Humidity: 73%
Pressure (altimeter): 30.11 in. Hg (1019 hPa)
ob: KEYW 242353Z 36005KT 10SM SKC 24/21 A3011 RMK A02 SLP192 T02610211
cycle: 0

Station Type Date Time Source
KEYW TAF 2021/02/24 18:48 UTC NOAA

TAF KEYW 241747Z 2418/2518 VRB04KT P6SM SKC
FM250000 05006KT P6SM FEW025

Example: see airport list